sensor_id;sensor_type;location;lat;lon;timestamp;temperature;humidity
28520;DHT22;15732;48.534;20.382;2022-10-31T00:01:31;12.00;99.90
28520;DHT22;15732;48.534;20.382;2022-10-31T00:03:58;11.90;99.90
28520;DHT22;15732;48.534;20.382;2022-10-31T00:06:25;11.90;99.90
28520;DHT22;15732;48.534;20.382;2022-10-31T00:08:54;11.80;99.90
28520;DHT22;15732;48.534;20.382;2022-10-31T00:11:21;11.90;99.90
28520;DHT22;15732;48.534;20.382;2022-10-31T00:13:48;11.90;99.90
28520;DHT22;15732;48.534;20.382;2022-10-31T00:16:22;11.80;99.90
28520;DHT22;15732;48.534;20.382;2022-10-31T00:18:54;11.90;99.90
28520;DHT22;15732;48.534;20.382;2022-10-31T00:21:25;11.90;99.90
28520;DHT22;15732;48.534;20.382;2022-10-31T00:23:52;11.90;99.90
28520;DHT22;15732;48.534;20.382;2022-10-31T00:26:19;11.90;99.90
28520;DHT22;15732;48.534;20.382;2022-10-31T00:28:47;11.90;99.90
28520;DHT22;15732;48.534;20.382;2022-10-31T00:31:18;11.80;99.90
28520;DHT22;15732;48.534;20.382;2022-10-31T00:33:45;11.90;99.90
28520;DHT22;15732;48.534;20.382;2022-10-31T00:36:18;11.90;99.90
28520;DHT22;15732;48.534;20.382;2022-10-31T00:38:47;11.90;99.90
28520;DHT22;15732;48.534;20.382;2022-10-31T00:41:15;11.90;99.90
28520;DHT22;15732;48.534;20.382;2022-10-31T00:43:43;11.90;99.90
28520;DHT22;15732;48.534;20.382;2022-10-31T00:46:11;11.90;99.90
28520;DHT22;15732;48.534;20.382;2022-10-31T00:48:37;11.80;99.90
28520;DHT22;15732;48.534;20.382;2022-10-31T00:51:09;11.80;99.90
28520;DHT22;15732;48.534;20.382;2022-10-31T00:53:37;11.80;99.90
28520;DHT22;15732;48.534;20.382;2022-10-31T00:56:05;11.80;99.90
28520;DHT22;15732;48.534;20.382;2022-10-31T00:58:33;11.80;99.90
28520;DHT22;15732;48.534;20.382;2022-10-31T01:01:00;11.70;99.90
28520;DHT22;15732;48.534;20.382;2022-10-31T01:03:30;11.70;99.90
28520;DHT22;15732;48.534;20.382;2022-10-31T01:06:08;11.70;99.90
28520;DHT22;15732;48.534;20.382;2022-10-31T01:08:37;11.70;99.90
28520;DHT22;15732;48.534;20.382;2022-10-31T01:11:10;11.70;99.90
28520;DHT22;15732;48.534;20.382;2022-10-31T01:13:45;11.60;99.90
28520;DHT22;15732;48.534;20.382;2022-10-31T01:16:14;11.60;99.90
28520;DHT22;15732;48.534;20.382;2022-10-31T01:18:46;11.60;99.90
28520;DHT22;15732;48.534;20.382;2022-10-31T01:21:21;11.60;99.90
28520;DHT22;15732;48.534;20.382;2022-10-31T01:23:49;11.60;99.90
28520;DHT22;15732;48.534;20.382;2022-10-31T01:26:19;11.60;99.90
28520;DHT22;15732;48.534;20.382;2022-10-31T01:28:51;11.60;99.90
28520;DHT22;15732;48.534;20.382;2022-10-31T01:31:21;11.60;99.90
28520;DHT22;15732;48.534;20.382;2022-10-31T01:33:48;11.60;99.90
28520;DHT22;15732;48.534;20.382;2022-10-31T01:36:23;11.60;99.90
28520;DHT22;15732;48.534;20.382;2022-10-31T01:38:52;11.60;99.90
28520;DHT22;15732;48.534;20.382;2022-10-31T01:41:25;11.50;99.90
28520;DHT22;15732;48.534;20.382;2022-10-31T01:46:46;11.50;99.90
28520;DHT22;15732;48.534;20.382;2022-10-31T01:51:48;11.50;99.90
28520;DHT22;15732;48.534;20.382;2022-10-31T01:54:18;11.60;99.90
28520;DHT22;15732;48.534;20.382;2022-10-31T01:56:50;11.50;99.90
28520;DHT22;15732;48.534;20.382;2022-10-31T01:59:21;11.50;99.90
28520;DHT22;15732;48.534;20.382;2022-10-31T02:01:50;11.50;99.90
28520;DHT22;15732;48.534;20.382;2022-10-31T02:04:19;11.50;99.90
28520;DHT22;15732;48.534;20.382;2022-10-31T02:06:51;11.50;99.90
28520;DHT22;15732;48.534;20.382;2022-10-31T02:09:20;11.50;99.90
28520;DHT22;15732;48.534;20.382;2022-10-31T02:11:52;11.50;99.90
28520;DHT22;15732;48.534;20.382;2022-10-31T02:14:24;11.40;99.90
28520;DHT22;15732;48.534;20.382;2022-10-31T02:16:51;11.40;99.90
28520;DHT22;15732;48.534;20.382;2022-10-31T02:19:27;11.40;99.90
28520;DHT22;15732;48.534;20.382;2022-10-31T02:22:18;11.40;99.90
28520;DHT22;15732;48.534;20.382;2022-10-31T02:25:30;11.30;99.90
28520;DHT22;15732;48.534;20.382;2022-10-31T02:33:53;11.30;99.90
28520;DHT22;15732;48.534;20.382;2022-10-31T02:39:40;11.20;99.90
28520;DHT22;15732;48.534;20.382;2022-10-31T02:42:27;11.20;99.90
28520;DHT22;15732;48.534;20.382;2022-10-31T02:45:13;11.20;99.90
28520;DHT22;15732;48.534;20.382;2022-10-31T02:47:42;11.20;99.90
28520;DHT22;15732;48.534;20.382;2022-10-31T02:50:14;11.20;99.90
28520;DHT22;15732;48.534;20.382;2022-10-31T02:52:55;11.20;99.90
28520;DHT22;15732;48.534;20.382;2022-10-31T02:58:11;11.20;99.90
28520;DHT22;15732;48.534;20.382;2022-10-31T03:03:36;11.20;99.90
28520;DHT22;15732;48.534;20.382;2022-10-31T03:06:17;11.20;99.90
28520;DHT22;15732;48.534;20.382;2022-10-31T03:11:43;11.20;99.90
28520;DHT22;15732;48.534;20.382;2022-10-31T03:17:31;11.20;99.90
28520;DHT22;15732;48.534;20.382;2022-10-31T03:20:12;11.20;99.90
28520;DHT22;15732;48.534;20.382;2022-10-31T03:22:40;11.20;99.90
28520;DHT22;15732;48.534;20.382;2022-10-31T03:25:09;11.20;99.90
28520;DHT22;15732;48.534;20.382;2022-10-31T03:27:37;11.20;99.90
28520;DHT22;15732;48.534;20.382;2022-10-31T03:30:07;11.30;99.90
28520;DHT22;15732;48.534;20.382;2022-10-31T03:32:49;11.30;99.90
28520;DHT22;15732;48.534;20.382;2022-10-31T03:35:22;11.30;99.90
28520;DHT22;15732;48.534;20.382;2022-10-31T03:37:55;11.30;99.90
28520;DHT22;15732;48.534;20.382;2022-10-31T03:40:26;11.30;99.90
28520;DHT22;15732;48.534;20.382;2022-10-31T03:42:57;11.40;99.90
28520;DHT22;15732;48.534;20.382;2022-10-31T03:45:30;11.40;99.90
28520;DHT22;15732;48.534;20.382;2022-10-31T03:47:59;11.40;99.90
28520;DHT22;15732;48.534;20.382;2022-10-31T03:50:44;11.40;99.90
28520;DHT22;15732;48.534;20.382;2022-10-31T03:53:45;11.40;99.90
28520;DHT22;15732;48.534;20.382;2022-10-31T03:56:18;11.50;99.90
28520;DHT22;15732;48.534;20.382;2022-10-31T03:58:52;11.50;99.90
28520;DHT22;15732;48.534;20.382;2022-10-31T04:01:23;11.50;99.90
28520;DHT22;15732;48.534;20.382;2022-10-31T04:03:52;11.50;99.90
28520;DHT22;15732;48.534;20.382;2022-10-31T04:06:21;11.50;99.90
28520;DHT22;15732;48.534;20.382;2022-10-31T04:08:52;11.40;99.90
28520;DHT22;15732;48.534;20.382;2022-10-31T04:11:24;11.40;99.90
28520;DHT22;15732;48.534;20.382;2022-10-31T04:13:54;11.40;99.90
28520;DHT22;15732;48.534;20.382;2022-10-31T04:16:26;11.40;99.90
28520;DHT22;15732;48.534;20.382;2022-10-31T04:18:58;11.40;99.90
28520;DHT22;15732;48.534;20.382;2022-10-31T04:21:30;11.50;99.90
28520;DHT22;15732;48.534;20.382;2022-10-31T04:24:00;11.50;99.90
28520;DHT22;15732;48.534;20.382;2022-10-31T04:26:28;11.50;99.90
28520;DHT22;15732;48.534;20.382;2022-10-31T04:28:59;11.40;99.90
28520;DHT22;15732;48.534;20.382;2022-10-31T04:31:26;11.40;99.90
28520;DHT22;15732;48.534;20.382;2022-10-31T04:33:53;11.40;99.90
28520;DHT22;15732;48.534;20.382;2022-10-31T04:36:20;11.40;99.90
28520;DHT22;15732;48.534;20.382;2022-10-31T04:38:47;11.30;99.90
28520;DHT22;15732;48.534;20.382;2022-10-31T04:41:15;11.30;99.90
28520;DHT22;15732;48.534;20.382;2022-10-31T04:43:42;11.30;99.90
28520;DHT22;15732;48.534;20.382;2022-10-31T04:46:09;11.30;99.90
28520;DHT22;15732;48.534;20.382;2022-10-31T04:48:37;11.30;99.90
28520;DHT22;15732;48.534;20.382;2022-10-31T04:51:04;11.30;99.90
28520;DHT22;15732;48.534;20.382;2022-10-31T04:53:32;11.30;99.90
28520;DHT22;15732;48.534;20.382;2022-10-31T04:56:02;11.30;99.90
28520;DHT22;15732;48.534;20.382;2022-10-31T04:58:30;11.30;99.90
28520;DHT22;15732;48.534;20.382;2022-10-31T05:01:01;11.30;99.90
28520;DHT22;15732;48.534;20.382;2022-10-31T05:03:32;11.30;99.90
28520;DHT22;15732;48.534;20.382;2022-10-31T05:06:00;11.20;99.90
28520;DHT22;15732;48.534;20.382;2022-10-31T05:08:27;11.20;99.90
28520;DHT22;15732;48.534;20.382;2022-10-31T05:11:04;11.20;99.90
28520;DHT22;15732;48.534;20.382;2022-10-31T05:13:31;11.30;99.90
28520;DHT22;15732;48.534;20.382;2022-10-31T05:15:58;11.30;99.90
28520;DHT22;15732;48.534;20.382;2022-10-31T05:18:25;11.30;99.90
28520;DHT22;15732;48.534;20.382;2022-10-31T05:20:57;11.20;99.90
28520;DHT22;15732;48.534;20.382;2022-10-31T05:23:24;11.30;99.90
28520;DHT22;15732;48.534;20.382;2022-10-31T05:25:55;11.20;99.90
28520;DHT22;15732;48.534;20.382;2022-10-31T05:28:22;11.20;99.90
28520;DHT22;15732;48.534;20.382;2022-10-31T05:30:49;11.20;99.90
28520;DHT22;15732;48.534;20.382;2022-10-31T05:33:17;11.30;99.90
28520;DHT22;15732;48.534;20.382;2022-10-31T05:35:48;11.30;99.90
28520;DHT22;15732;48.534;20.382;2022-10-31T05:38:19;11.30;99.90
28520;DHT22;15732;48.534;20.382;2022-10-31T05:40:46;11.30;99.90
28520;DHT22;15732;48.534;20.382;2022-10-31T05:43:17;11.40;99.90
28520;DHT22;15732;48.534;20.382;2022-10-31T05:45:44;11.40;99.90
28520;DHT22;15732;48.534;20.382;2022-10-31T05:48:15;11.50;99.90
28520;DHT22;15732;48.534;20.382;2022-10-31T05:50:48;11.50;99.90
28520;DHT22;15732;48.534;20.382;2022-10-31T05:53:20;11.60;99.90
28520;DHT22;15732;48.534;20.382;2022-10-31T05:55:47;11.60;99.90
28520;DHT22;15732;48.534;20.382;2022-10-31T05:58:19;11.60;99.90
28520;DHT22;15732;48.534;20.382;2022-10-31T06:00:46;11.60;99.90
28520;DHT22;15732;48.534;20.382;2022-10-31T06:03:13;11.60;99.90
28520;DHT22;15732;48.534;20.382;2022-10-31T06:05:44;11.60;99.90
28520;DHT22;15732;48.534;20.382;2022-10-31T06:08:11;11.70;99.90
28520;DHT22;15732;48.534;20.382;2022-10-31T06:10:42;11.70;99.90
28520;DHT22;15732;48.534;20.382;2022-10-31T06:13:14;11.70;99.90
28520;DHT22;15732;48.534;20.382;2022-10-31T06:15:45;11.70;99.90
28520;DHT22;15732;48.534;20.382;2022-10-31T06:18:12;11.70;99.90
28520;DHT22;15732;48.534;20.382;2022-10-31T06:20:43;11.80;99.90
28520;DHT22;15732;48.534;20.382;2022-10-31T06:23:11;11.70;99.90
28520;DHT22;15732;48.534;20.382;2022-10-31T06:25:41;11.70;99.90
28520;DHT22;15732;48.534;20.382;2022-10-31T06:28:08;11.70;99.90
28520;DHT22;15732;48.534;20.382;2022-10-31T06:30:36;11.70;99.90
28520;DHT22;15732;48.534;20.382;2022-10-31T06:33:04;11.60;99.90
28520;DHT22;15732;48.534;20.382;2022-10-31T06:35:35;11.60;99.90
28520;DHT22;15732;48.534;20.382;2022-10-31T06:38:02;11.60;99.90
28520;DHT22;15732;48.534;20.382;2022-10-31T06:40:29;11.60;99.90
28520;DHT22;15732;48.534;20.382;2022-10-31T06:43:02;11.60;99.90
28520;DHT22;15732;48.534;20.382;2022-10-31T06:45:29;11.60;99.90
28520;DHT22;15732;48.534;20.382;2022-10-31T06:47:56;11.60;99.90
28520;DHT22;15732;48.534;20.382;2022-10-31T06:50:23;11.60;99.90
28520;DHT22;15732;48.534;20.382;2022-10-31T06:52:54;11.60;99.90
28520;DHT22;15732;48.534;20.382;2022-10-31T06:55:22;11.60;99.90
28520;DHT22;15732;48.534;20.382;2022-10-31T06:57:51;11.60;99.90
28520;DHT22;15732;48.534;20.382;2022-10-31T07:00:22;11.60;99.90
28520;DHT22;15732;48.534;20.382;2022-10-31T07:03:01;11.60;99.90
28520;DHT22;15732;48.534;20.382;2022-10-31T07:05:29;11.60;99.90
28520;DHT22;15732;48.534;20.382;2022-10-31T07:08:01;11.60;99.90
28520;DHT22;15732;48.534;20.382;2022-10-31T07:10:30;11.70;99.90
28520;DHT22;15732;48.534;20.382;2022-10-31T07:13:04;11.70;99.90
28520;DHT22;15732;48.534;20.382;2022-10-31T07:15:37;11.70;99.90
28520;DHT22;15732;48.534;20.382;2022-10-31T07:18:05;11.70;99.90
28520;DHT22;15732;48.534;20.382;2022-10-31T07:20:37;11.80;99.90
28520;DHT22;15732;48.534;20.382;2022-10-31T07:23:04;11.80;99.90
28520;DHT22;15732;48.534;20.382;2022-10-31T07:25:31;11.80;99.90
28520;DHT22;15732;48.534;20.382;2022-10-31T07:28:03;11.80;99.90
28520;DHT22;15732;48.534;20.382;2022-10-31T07:30:31;11.80;99.90
28520;DHT22;15732;48.534;20.382;2022-10-31T07:32:58;11.90;99.90
28520;DHT22;15732;48.534;20.382;2022-10-31T07:35:28;11.90;99.90
28520;DHT22;15732;48.534;20.382;2022-10-31T07:37:55;11.90;99.90
28520;DHT22;15732;48.534;20.382;2022-10-31T07:40:22;11.90;99.90
28520;DHT22;15732;48.534;20.382;2022-10-31T07:42:54;11.90;99.90
28520;DHT22;15732;48.534;20.382;2022-10-31T07:45:25;12.00;99.90
28520;DHT22;15732;48.534;20.382;2022-10-31T07:47:56;12.00;99.90
28520;DHT22;15732;48.534;20.382;2022-10-31T07:50:28;12.00;99.90
28520;DHT22;15732;48.534;20.382;2022-10-31T07:53:06;12.00;99.90
28520;DHT22;15732;48.534;20.382;2022-10-31T07:55:37;12.00;99.90
28520;DHT22;15732;48.534;20.382;2022-10-31T07:58:15;12.00;99.90
28520;DHT22;15732;48.534;20.382;2022-10-31T08:01:02;12.10;99.90
28520;DHT22;15732;48.534;20.382;2022-10-31T08:03:30;12.10;99.90
28520;DHT22;15732;48.534;20.382;2022-10-31T08:05:57;12.10;99.90
28520;DHT22;15732;48.534;20.382;2022-10-31T08:08:24;12.20;99.90
28520;DHT22;15732;48.534;20.382;2022-10-31T08:10:54;12.20;99.90
28520;DHT22;15732;48.534;20.382;2022-10-31T08:13:22;12.20;99.90
28520;DHT22;15732;48.534;20.382;2022-10-31T08:15:49;12.20;99.90
28520;DHT22;15732;48.534;20.382;2022-10-31T08:18:21;12.20;99.90
28520;DHT22;15732;48.534;20.382;2022-10-31T08:20:50;12.20;99.90
28520;DHT22;15732;48.534;20.382;2022-10-31T08:23:21;12.20;99.90
28520;DHT22;15732;48.534;20.382;2022-10-31T08:25:48;12.20;99.90
28520;DHT22;15732;48.534;20.382;2022-10-31T08:28:16;12.20;99.90
28520;DHT22;15732;48.534;20.382;2022-10-31T08:30:43;12.20;99.90
28520;DHT22;15732;48.534;20.382;2022-10-31T08:33:14;12.20;99.90
28520;DHT22;15732;48.534;20.382;2022-10-31T08:35:41;12.20;99.90
28520;DHT22;15732;48.534;20.382;2022-10-31T08:38:13;12.20;99.90
28520;DHT22;15732;48.534;20.382;2022-10-31T08:40:40;12.20;99.90
28520;DHT22;15732;48.534;20.382;2022-10-31T08:43:15;12.20;99.90
28520;DHT22;15732;48.534;20.382;2022-10-31T08:45:44;12.20;99.90
28520;DHT22;15732;48.534;20.382;2022-10-31T08:48:13;12.10;99.90
28520;DHT22;15732;48.534;20.382;2022-10-31T08:50:45;12.10;99.90
28520;DHT22;15732;48.534;20.382;2022-10-31T08:53:15;12.10;99.90
28520;DHT22;15732;48.534;20.382;2022-10-31T08:55:46;12.20;99.90
28520;DHT22;15732;48.534;20.382;2022-10-31T08:58:18;12.10;99.90
28520;DHT22;15732;48.534;20.382;2022-10-31T09:00:47;12.20;99.90
28520;DHT22;15732;48.534;20.382;2022-10-31T09:05:45;12.20;99.90
28520;DHT22;15732;48.534;20.382;2022-10-31T09:08:14;12.20;99.90
28520;DHT22;15732;48.534;20.382;2022-10-31T09:10:41;12.20;99.90
28520;DHT22;15732;48.534;20.382;2022-10-31T09:13:13;12.20;99.90
28520;DHT22;15732;48.534;20.382;2022-10-31T09:15:43;12.20;99.90
28520;DHT22;15732;48.534;20.382;2022-10-31T09:18:12;12.20;99.90
28520;DHT22;15732;48.534;20.382;2022-10-31T09:20:40;12.20;99.90
28520;DHT22;15732;48.534;20.382;2022-10-31T09:23:14;12.20;99.90
28520;DHT22;15732;48.534;20.382;2022-10-31T09:25:42;12.20;99.90
28520;DHT22;15732;48.534;20.382;2022-10-31T09:28:14;12.10;99.90
28520;DHT22;15732;48.534;20.382;2022-10-31T09:30:41;12.20;99.90
28520;DHT22;15732;48.534;20.382;2022-10-31T09:33:12;12.20;99.90
28520;DHT22;15732;48.534;20.382;2022-10-31T09:35:41;12.20;99.90
28520;DHT22;15732;48.534;20.382;2022-10-31T09:38:13;12.10;99.90
28520;DHT22;15732;48.534;20.382;2022-10-31T09:40:52;12.10;99.90
28520;DHT22;15732;48.534;20.382;2022-10-31T09:43:39;12.10;99.90
28520;DHT22;15732;48.534;20.382;2022-10-31T09:46:22;12.10;99.90
28520;DHT22;15732;48.534;20.382;2022-10-31T09:51:32;12.20;99.90
28520;DHT22;15732;48.534;20.382;2022-10-31T09:54:10;12.30;99.90
28520;DHT22;15732;48.534;20.382;2022-10-31T09:56:39;12.30;99.90
28520;DHT22;15732;48.534;20.382;2022-10-31T09:59:24;12.30;99.90
28520;DHT22;15732;48.534;20.382;2022-10-31T10:02:00;12.30;99.90
28520;DHT22;15732;48.534;20.382;2022-10-31T10:04:43;12.30;99.90
28520;DHT22;15732;48.534;20.382;2022-10-31T10:09:48;12.40;99.90
28520;DHT22;15732;48.534;20.382;2022-10-31T10:18:32;12.40;99.90
28520;DHT22;15732;48.534;20.382;2022-10-31T10:21:12;12.40;99.90
28520;DHT22;15732;48.534;20.382;2022-10-31T10:26:21;12.40;99.90
28520;DHT22;15732;48.534;20.382;2022-10-31T10:31:44;12.50;99.90
28520;DHT22;15732;48.534;20.382;2022-10-31T10:34:29;12.50;99.90
28520;DHT22;15732;48.534;20.382;2022-10-31T10:37:23;12.50;99.90
28520;DHT22;15732;48.534;20.382;2022-10-31T10:40:40;12.50;99.90
28520;DHT22;15732;48.534;20.382;2022-10-31T10:43:20;12.50;99.90
28520;DHT22;15732;48.534;20.382;2022-10-31T10:46:18;12.60;99.90
28520;DHT22;15732;48.534;20.382;2022-10-31T10:51:58;12.60;99.90
28520;DHT22;15732;48.534;20.382;2022-10-31T10:54:48;12.70;99.90
28520;DHT22;15732;48.534;20.382;2022-10-31T10:59:50;12.70;99.90
28520;DHT22;15732;48.534;20.382;2022-10-31T11:02:24;12.70;99.90
28520;DHT22;15732;48.534;20.382;2022-10-31T11:04:58;12.70;99.90
28520;DHT22;15732;48.534;20.382;2022-10-31T11:07:40;12.80;99.90
28520;DHT22;15732;48.534;20.382;2022-10-31T11:10:24;12.80;99.90
28520;DHT22;15732;48.534;20.382;2022-10-31T11:16:04;12.70;99.90
28520;DHT22;15732;48.534;20.382;2022-10-31T11:18:46;12.70;99.90
28520;DHT22;15732;48.534;20.382;2022-10-31T11:21:29;12.70;99.90
28520;DHT22;15732;48.534;20.382;2022-10-31T11:26:33;12.80;99.90
28520;DHT22;15732;48.534;20.382;2022-10-31T11:29:01;12.70;99.90
28520;DHT22;15732;48.534;20.382;2022-10-31T11:31:34;12.70;99.90
28520;DHT22;15732;48.534;20.382;2022-10-31T11:34:13;12.80;99.90
28520;DHT22;15732;48.534;20.382;2022-10-31T11:36:44;12.80;99.90
28520;DHT22;15732;48.534;20.382;2022-10-31T11:39:23;12.80;99.90
28520;DHT22;15732;48.534;20.382;2022-10-31T11:41:52;12.80;99.90
28520;DHT22;15732;48.534;20.382;2022-10-31T11:44:27;12.80;99.90
28520;DHT22;15732;48.534;20.382;2022-10-31T11:47:00;12.80;99.90
28520;DHT22;15732;48.534;20.382;2022-10-31T11:49:46;12.80;99.90
28520;DHT22;15732;48.534;20.382;2022-10-31T11:52:22;12.80;99.90
28520;DHT22;15732;48.534;20.382;2022-10-31T11:57:51;12.80;99.90
28520;DHT22;15732;48.534;20.382;2022-10-31T12:00:33;12.90;99.90
28520;DHT22;15732;48.534;20.382;2022-10-31T12:06:14;12.90;99.90
28520;DHT22;15732;48.534;20.382;2022-10-31T12:08:45;12.90;99.90
28520;DHT22;15732;48.534;20.382;2022-10-31T12:14:21;12.90;99.90
28520;DHT22;15732;48.534;20.382;2022-10-31T12:16:59;12.90;99.90
28520;DHT22;15732;48.534;20.382;2022-10-31T12:22:21;12.90;99.90
28520;DHT22;15732;48.534;20.382;2022-10-31T12:35:51;12.90;99.90
28520;DHT22;15732;48.534;20.382;2022-10-31T12:41:28;12.90;99.90
28520;DHT22;15732;48.534;20.382;2022-10-31T12:52:40;13.00;99.90
28520;DHT22;15732;48.534;20.382;2022-10-31T12:58:09;13.00;99.90
28520;DHT22;15732;48.534;20.382;2022-10-31T13:00:40;13.00;99.90
28520;DHT22;15732;48.534;20.382;2022-10-31T13:03:28;13.00;99.90
28520;DHT22;15732;48.534;20.382;2022-10-31T13:06:09;12.90;99.90
28520;DHT22;15732;48.534;20.382;2022-10-31T13:08:45;12.90;99.90
28520;DHT22;15732;48.534;20.382;2022-10-31T13:11:30;12.90;99.90
28520;DHT22;15732;48.534;20.382;2022-10-31T13:14:12;12.90;99.90
28520;DHT22;15732;48.534;20.382;2022-10-31T13:16:46;12.90;99.90
28520;DHT22;15732;48.534;20.382;2022-10-31T13:19:36;12.90;99.90
28520;DHT22;15732;48.534;20.382;2022-10-31T13:22:17;12.90;99.90
28520;DHT22;15732;48.534;20.382;2022-10-31T13:24:58;12.90;99.90
28520;DHT22;15732;48.534;20.382;2022-10-31T13:27:45;12.90;99.90
28520;DHT22;15732;48.534;20.382;2022-10-31T13:30:22;12.90;99.90
28520;DHT22;15732;48.534;20.382;2022-10-31T13:38:27;12.90;99.90
28520;DHT22;15732;48.534;20.382;2022-10-31T13:48:59;13.00;99.90
28520;DHT22;15732;48.534;20.382;2022-10-31T13:51:29;13.00;99.90
28520;DHT22;15732;48.534;20.382;2022-10-31T13:53:59;13.00;99.90
28520;DHT22;15732;48.534;20.382;2022-10-31T13:56:31;13.00;99.90
28520;DHT22;15732;48.534;20.382;2022-10-31T13:59:12;13.00;99.90
28520;DHT22;15732;48.534;20.382;2022-10-31T14:01:48;13.00;99.90
28520;DHT22;15732;48.534;20.382;2022-10-31T14:04:26;12.90;99.90
28520;DHT22;15732;48.534;20.382;2022-10-31T14:07:16;13.00;99.90
28520;DHT22;15732;48.534;20.382;2022-10-31T14:10:38;12.90;99.90
28520;DHT22;15732;48.534;20.382;2022-10-31T14:12:43;12.90;99.90
28520;DHT22;15732;48.534;20.382;2022-10-31T14:15:22;12.90;99.90
28520;DHT22;15732;48.534;20.382;2022-10-31T14:22:43;12.90;99.90
28520;DHT22;15732;48.534;20.382;2022-10-31T14:25:30;12.90;99.90
28520;DHT22;15732;48.534;20.382;2022-10-31T14:28:01;12.90;99.90
28520;DHT22;15732;48.534;20.382;2022-10-31T14:30:30;12.90;99.90
28520;DHT22;15732;48.534;20.382;2022-10-31T14:32:59;12.90;99.90
28520;DHT22;15732;48.534;20.382;2022-10-31T14:52:14;12.90;99.90
28520;DHT22;15732;48.534;20.382;2022-10-31T14:54:59;12.90;99.90
28520;DHT22;15732;48.534;20.382;2022-10-31T14:57:34;12.90;99.90
28520;DHT22;15732;48.534;20.382;2022-10-31T15:00:12;12.90;99.90
28520;DHT22;15732;48.534;20.382;2022-10-31T15:05:19;12.90;99.90
28520;DHT22;15732;48.534;20.382;2022-10-31T15:07:55;12.80;99.90
28520;DHT22;15732;48.534;20.382;2022-10-31T15:10:44;12.90;99.90
28520;DHT22;15732;48.534;20.382;2022-10-31T15:13:21;12.80;99.90
28520;DHT22;15732;48.534;20.382;2022-10-31T15:15:52;12.80;99.90
28520;DHT22;15732;48.534;20.382;2022-10-31T15:18:26;12.80;99.90
28520;DHT22;15732;48.534;20.382;2022-10-31T15:20:56;12.80;99.90
28520;DHT22;15732;48.534;20.382;2022-10-31T15:23:27;12.70;99.90
28520;DHT22;15732;48.534;20.382;2022-10-31T15:26:03;12.70;99.90
28520;DHT22;15732;48.534;20.382;2022-10-31T15:28:32;12.70;99.90
28520;DHT22;15732;48.534;20.382;2022-10-31T15:31:01;12.70;99.90
28520;DHT22;15732;48.534;20.382;2022-10-31T15:33:39;12.70;99.90
28520;DHT22;15732;48.534;20.382;2022-10-31T15:36:17;12.70;99.90
28520;DHT22;15732;48.534;20.382;2022-10-31T15:38:44;12.70;99.90
28520;DHT22;15732;48.534;20.382;2022-10-31T15:41:50;12.70;99.90
28520;DHT22;15732;48.534;20.382;2022-10-31T15:44:33;12.70;99.90
28520;DHT22;15732;48.534;20.382;2022-10-31T15:47:23;12.70;99.90
28520;DHT22;15732;48.534;20.382;2022-10-31T15:49:55;12.70;99.90
28520;DHT22;15732;48.534;20.382;2022-10-31T15:52:36;12.70;99.90
28520;DHT22;15732;48.534;20.382;2022-10-31T15:57:42;12.70;99.90
28520;DHT22;15732;48.534;20.382;2022-10-31T16:00:31;12.70;99.90
28520;DHT22;15732;48.534;20.382;2022-10-31T16:03:04;12.70;99.90
28520;DHT22;15732;48.534;20.382;2022-10-31T16:06:00;12.70;99.90
28520;DHT22;15732;48.534;20.382;2022-10-31T16:11:00;12.70;99.90
28520;DHT22;15732;48.534;20.382;2022-10-31T16:13:51;12.70;99.90
28520;DHT22;15732;48.534;20.382;2022-10-31T16:16:19;12.70;99.90
28520;DHT22;15732;48.534;20.382;2022-10-31T16:18:52;12.70;99.90
28520;DHT22;15732;48.534;20.382;2022-10-31T16:21:35;12.70;99.90
28520;DHT22;15732;48.534;20.382;2022-10-31T16:24:25;12.70;99.90
28520;DHT22;15732;48.534;20.382;2022-10-31T16:27:05;12.70;99.90
28520;DHT22;15732;48.534;20.382;2022-10-31T16:29:43;12.70;99.90
28520;DHT22;15732;48.534;20.382;2022-10-31T16:32:32;12.70;99.90
28520;DHT22;15732;48.534;20.382;2022-10-31T16:37:41;12.70;99.90
28520;DHT22;15732;48.534;20.382;2022-10-31T16:40:10;12.70;99.90
28520;DHT22;15732;48.534;20.382;2022-10-31T16:42:40;12.70;99.90
28520;DHT22;15732;48.534;20.382;2022-10-31T16:45:19;12.70;99.90
28520;DHT22;15732;48.534;20.382;2022-10-31T16:47:47;12.70;99.90
28520;DHT22;15732;48.534;20.382;2022-10-31T16:50:21;12.60;99.90
28520;DHT22;15732;48.534;20.382;2022-10-31T16:52:52;12.60;99.90
28520;DHT22;15732;48.534;20.382;2022-10-31T16:55:23;12.60;99.90
28520;DHT22;15732;48.534;20.382;2022-10-31T16:57:55;12.50;99.90
28520;DHT22;15732;48.534;20.382;2022-10-31T17:00:24;12.60;99.90
28520;DHT22;15732;48.534;20.382;2022-10-31T17:02:53;12.60;99.90
28520;DHT22;15732;48.534;20.382;2022-10-31T17:05:21;12.60;99.90
28520;DHT22;15732;48.534;20.382;2022-10-31T17:07:48;12.60;99.90
28520;DHT22;15732;48.534;20.382;2022-10-31T17:10:17;12.60;99.90
28520;DHT22;15732;48.534;20.382;2022-10-31T17:12:48;12.60;99.90
28520;DHT22;15732;48.534;20.382;2022-10-31T17:15:24;12.60;99.90
28520;DHT22;15732;48.534;20.382;2022-10-31T17:17:51;12.60;99.90
28520;DHT22;15732;48.534;20.382;2022-10-31T17:20:27;12.60;99.90
28520;DHT22;15732;48.534;20.382;2022-10-31T17:22:55;12.60;99.90
28520;DHT22;15732;48.534;20.382;2022-10-31T17:25:25;12.70;99.90
28520;DHT22;15732;48.534;20.382;2022-10-31T17:27:52;12.60;99.90
28520;DHT22;15732;48.534;20.382;2022-10-31T17:30:20;12.70;99.90
28520;DHT22;15732;48.534;20.382;2022-10-31T17:32:48;12.60;99.90
28520;DHT22;15732;48.534;20.382;2022-10-31T17:35:16;12.70;99.90
28520;DHT22;15732;48.534;20.382;2022-10-31T17:37:44;12.70;99.90
28520;DHT22;15732;48.534;20.382;2022-10-31T17:40:15;12.70;99.90
28520;DHT22;15732;48.534;20.382;2022-10-31T17:42:54;12.70;99.90
28520;DHT22;15732;48.534;20.382;2022-10-31T17:45:23;12.70;99.90
28520;DHT22;15732;48.534;20.382;2022-10-31T17:47:51;12.70;99.90
28520;DHT22;15732;48.534;20.382;2022-10-31T17:50:23;12.70;99.90
28520;DHT22;15732;48.534;20.382;2022-10-31T17:52:50;12.70;99.90
28520;DHT22;15732;48.534;20.382;2022-10-31T17:55:18;12.70;99.90
28520;DHT22;15732;48.534;20.382;2022-10-31T17:57:45;12.60;99.90
28520;DHT22;15732;48.534;20.382;2022-10-31T18:00:16;12.60;99.90
28520;DHT22;15732;48.534;20.382;2022-10-31T18:02:44;12.60;99.90
28520;DHT22;15732;48.534;20.382;2022-10-31T18:05:11;12.60;99.90
28520;DHT22;15732;48.534;20.382;2022-10-31T18:07:42;12.60;99.90
28520;DHT22;15732;48.534;20.382;2022-10-31T18:10:09;12.50;99.90